Time;durP1;ratioP1;P1;durP2;ratioP2;P2;SDS_P1;SDS_P2;PMS_P1;PMS_P2;Temp;Humidity;BMP_temperature;BMP_pressure;BME280_temperature;BME280_humidity;BME280_pressure;Samples;Min_cycle;Max_cycle;Signal;HPM_P1;HPM_P2
2022/06/21 00:01:02;;;;;;;6.95;3.30;;;;;;;11.90;72.97;101624.13;5029567;28;20037;-73
2022/06/21 00:03:28;;;;;;;7.25;3.45;;;;;;;11.82;73.50;101632.78;5042295;28;20488;-74
2022/06/21 00:05:54;;;;;;;5.00;3.47;;;;;;;11.78;73.51;101630.34;5042985;28;20057;-72
2022/06/21 00:08:25;;;;;;;7.63;3.72;;;;;;;11.78;72.49;101630.34;5029220;28;20064;-74
2022/06/21 00:10:52;;;;;;;9.07;3.97;;;;;;;11.79;73.65;101632.94;5029037;28;20048;-73
2022/06/21 00:13:21;;;;;;;7.72;3.70;;;;;;;11.79;72.79;101632.06;5031071;28;20044;-74
2022/06/21 00:15:48;;;;;;;5.95;3.60;;;;;;;11.74;72.74;101629.66;5028794;28;20038;-73
2022/06/21 00:18:19;;;;;;;6.03;3.42;;;;;;;11.70;72.62;101631.72;5028568;28;20041;-73
2022/06/21 00:20:46;;;;;;;6.72;3.45;;;;;;;11.58;74.20;101616.16;5028398;28;20041;-72
2022/06/21 00:23:21;;;;;;;6.68;3.83;;;;;;;11.54;73.52;101628.22;5028944;28;20033;-73
2022/06/21 00:25:46;;;;;;;5.57;4.00;;;;;;;11.52;73.70;101626.53;5029124;28;20042;-73
2022/06/21 00:28:17;;;;;;;5.82;3.30;;;;;;;11.51;73.14;101622.94;5028478;28;20036;-73
2022/06/21 00:30:44;;;;;;;6.90;4.15;;;;;;;11.52;72.95;101624.72;5042342;28;20529;-74
2022/06/21 00:33:13;;;;;;;5.32;3.03;;;;;;;11.50;73.43;101622.06;5037845;28;20056;-73
2022/06/21 00:35:41;;;;;;;5.35;3.78;;;;;;;11.44;73.95;101622.47;5041812;28;20235;-73
2022/06/21 00:38:14;;;;;;;6.85;4.03;;;;;;;11.39;73.97;101619.16;5027247;28;20136;-74
2022/06/21 00:40:40;;;;;;;4.93;3.42;;;;;;;11.38;73.49;101622.00;5028588;28;20068;-73
2022/06/21 00:43:22;;;;;;;5.00;3.35;;;;;;;11.37;72.99;101628.41;5037498;28;20116;-71
2022/06/21 00:45:50;;;;;;;8.23;4.03;;;;;;;11.32;73.57;101628.69;5028439;28;20544;-71
2022/06/21 00:48:22;;;;;;;7.60;5.10;;;;;;;11.24;74.27;101628.31;5028175;28;20103;-73
2022/06/21 00:51:13;;;;;;;4.95;3.25;;;;;;;11.10;75.56;101626.47;5027787;28;20061;-73
2022/06/21 00:53:43;;;;;;;8.02;4.15;;;;;;;11.02;75.01;101614.28;5021335;28;20045;-73
2022/06/21 00:56:16;;;;;;;7.53;3.50;;;;;;;11.05;74.35;101624.97;5028219;28;20037;-73
2022/06/21 00:58:42;;;;;;;7.47;3.33;;;;;;;11.05;74.88;101617.72;5027113;28;20041;-73
2022/06/21 01:01:14;;;;;;;6.28;3.63;;;;;;;11.06;74.63;101618.56;5037382;23;20591;-84
2022/06/21 01:03:58;;;;;;;4.88;3.67;;;;;;;11.01;73.67;101615.25;5040159;23;20062;-72
2022/06/21 01:06:31;;;;;;;5.00;3.90;;;;;;;10.90;75.88;101610.47;4988927;28;20573;-72
2022/06/21 01:09:11;;;;;;;4.63;4.10;;;;;;;10.77;76.72;101596.75;4989177;28;20034;-73
2022/06/21 01:11:44;;;;;;;6.93;3.90;;;;;;;10.67;75.84;101588.25;4988656;28;20113;-73
2022/06/21 01:14:11;;;;;;;4.93;3.75;;;;;;;10.67;75.66;101599.13;4988147;28;20512;-72
2022/06/21 01:16:39;;;;;;;5.50;4.13;;;;;;;10.67;76.24;101590.09;4988485;28;20104;-72
2022/06/21 01:19:14;;;;;;;6.57;4.40;;;;;;;10.65;75.63;101583.88;4986665;28;20046;-72
2022/06/21 01:21:41;;;;;;;7.78;3.78;;;;;;;10.65;75.40;101583.88;4988215;28;20073;-73
2022/06/21 01:24:54;;;;;;;7.65;4.40;;;;;;;10.64;74.76;101582.13;4988573;28;20038;-73
2022/06/21 01:27:20;;;;;;;8.05;4.40;;;;;;;10.60;75.40;101578.72;4985625;28;20164;-73
2022/06/21 01:29:46;;;;;;;7.05;4.20;;;;;;;10.59;75.26;101581.53;4988024;28;20026;-72
2022/06/21 01:32:12;;;;;;;7.10;4.10;;;;;;;10.59;75.61;101595.16;5006167;28;20128;-71
2022/06/21 01:34:39;;;;;;;5.47;3.88;;;;;;;10.58;75.39;101587.94;5002785;28;20109;-72
2022/06/21 01:37:29;;;;;;;8.65;4.50;;;;;;;10.56;75.13;101582.59;4988060;28;20069;-73
2022/06/21 01:40:01;;;;;;;6.88;4.82;;;;;;;10.46;76.07;101584.13;4998402;28;20054;-73
2022/06/21 01:42:34;;;;;;;9.53;5.43;;;;;;;10.44;75.55;101588.75;4988888;28;20494;-73
2022/06/21 01:45:04;;;;;;;9.35;4.95;;;;;;;10.43;76.75;101592.47;4988810;28;20325;-73
2022/06/21 01:47:38;;;;;;;8.05;5.10;;;;;;;10.35;76.57;101579.34;4987360;28;20101;-73
2022/06/21 01:50:08;;;;;;;9.23;5.80;;;;;;;10.36;76.15;101588.38;5002211;28;20042;-73
2022/06/21 01:52:36;;;;;;;5.65;4.38;;;;;;;10.37;76.19;101588.25;4987835;28;20034;-73
2022/06/21 01:55:10;;;;;;;9.35;5.10;;;;;;;10.35;76.40;101581.16;4988474;28;20027;-70
2022/06/21 01:57:38;;;;;;;6.72;5.15;;;;;;;10.29;78.28;101581.53;5002703;28;20199;-72
2022/06/21 02:00:04;;;;;;;8.88;5.47;;;;;;;10.28;76.55;101577.06;4987332;28;20591;-72
2022/06/21 02:02:36;;;;;;;7.13;4.13;;;;;;;10.31;76.59;101579.59;4993784;28;20065;-72
2022/06/21 02:05:26;;;;;;;6.28;4.55;;;;;;;10.31;76.54;101583.19;4997735;28;20448;-70
2022/06/21 02:07:56;;;;;;;8.70;4.70;;;;;;;10.22;77.49;101575.56;4987821;28;20042;-73
2022/06/21 02:10:34;;;;;;;7.18;4.80;;;;;;;10.21;76.25;101574.69;4987391;28;20496;-72
2022/06/21 02:13:06;;;;;;;5.88;4.03;;;;;;;10.22;76.94;101575.56;5002700;28;20045;-73
2022/06/21 02:15:45;;;;;;;9.15;4.18;;;;;;;10.20;76.18;101561.16;5001619;28;20569;-69
2022/06/21 02:18:13;;;;;;;9.30;4.13;;;;;;;10.17;75.77;101567.66;5002099;28;20137;-72
2022/06/21 02:20:45;;;;;;;10.68;5.20;;;;;;;10.13;76.76;101563.38;4987167;28;20034;-72
2022/06/21 02:23:14;;;;;;;8.93;5.20;;;;;;;10.08;77.26;101559.19;4987598;28;20476;-72
2022/06/21 02:25:41;;;;;;;7.85;4.80;;;;;;;10.02;77.83;101554.09;4987648;28;20072;-72
2022/06/21 02:28:09;;;;;;;8.77;5.22;;;;;;;9.99;78.09;101551.56;4987263;28;20481;-72
2022/06/21 02:30:36;;;;;;;9.55;5.50;;;;;;;9.94;78.80;101543.69;4987807;28;20026;-73
2022/06/21 02:33:05;;;;;;;7.50;5.63;;;;;;;9.89;79.34;101538.50;5006035;28;20463;-70
2022/06/21 02:35:48;;;;;;;8.65;5.22;;;;;;;9.89;77.68;101529.50;4995885;28;20118;-72
2022/06/21 02:38:18;;;;;;;9.18;5.35;;;;;;;9.90;78.05;101515.78;4986130;28;20047;-72
2022/06/21 02:40:51;;;;;;;7.65;4.50;;;;;;;9.92;77.15;101522.00;4986194;28;20037;-72
2022/06/21 02:43:23;;;;;;;5.93;4.70;;;;;;;9.94;77.03;101524.66;5001493;28;20042;-72
2022/06/21 02:45:59;;;;;;;7.68;4.70;;;;;;;9.92;78.15;101526.56;4987830;28;20385;-71
2022/06/21 02:48:28;;;;;;;8.63;5.55;;;;;;;9.87;78.88;101523.25;4987426;28;20046;-72
2022/06/21 02:51:02;;;;;;;9.05;6.15;;;;;;;9.86;79.23;101522.38;4986768;28;20046;-72
2022/06/21 02:53:32;;;;;;;9.10;5.30;;;;;;;9.87;79.35;101534.13;4987983;28;20539;-73
2022/06/21 02:56:08;;;;;;;9.27;4.82;;;;;;;9.88;78.24;101549.44;4985768;28;20042;-72
2022/06/21 02:58:45;;;;;;;8.38;5.43;;;;;;;9.88;78.55;101549.44;4987826;28;20514;-72
2022/06/21 03:01:25;;;;;;;10.05;4.95;;;;;;;9.89;78.10;101554.81;4990799;28;20073;-72
2022/06/21 03:03:51;;;;;;;10.65;5.22;;;;;;;9.87;77.91;101551.31;5007341;28;20074;-71
2022/06/21 03:06:19;;;;;;;9.80;5.97;;;;;;;9.86;78.02;101565.84;4992990;28;20575;-72
2022/06/21 03:08:54;;;;;;;9.07;4.85;;;;;;;9.84;77.81;101556.03;4990780;28;20053;-71
2022/06/21 03:11:22;;;;;;;8.73;4.95;;;;;;;9.78;78.41;101554.53;4991055;28;20161;-73
2022/06/21 03:13:49;;;;;;;8.27;5.63;;;;;;;9.70;78.30;101551.41;4990590;28;20550;-72
2022/06/21 03:16:18;;;;;;;8.23;5.13;;;;;;;9.62;78.99;101554.56;4990683;28;20046;-72
2022/06/21 03:18:49;;;;;;;10.65;5.57;;;;;;;9.60;78.96;101555.59;5005718;28;20148;-71
2022/06/21 03:21:16;;;;;;;9.32;5.60;;;;;;;9.61;78.23;101555.53;5004877;28;20117;-72
2022/06/21 03:23:44;;;;;;;14.40;5.35;;;;;;;9.58;78.65;101550.25;4990640;28;20208;-72
2022/06/21 03:26:13;;;;;;;8.05;5.75;;;;;;;9.54;79.57;101554.13;5005225;28;20485;-72
2022/06/21 03:28:41;;;;;;;10.38;5.63;;;;;;;9.50;79.77;101554.38;4990529;28;20125;-72
2022/06/21 03:31:12;;;;;;;8.30;5.55;;;;;;;9.50;79.19;101559.81;4990182;28;20046;-72
2022/06/21 03:33:41;;;;;;;11.48;5.57;;;;;;;9.52;78.23;101557.91;5005342;28;20117;-72
2022/06/21 03:36:09;;;;;;;7.75;5.97;;;;;;;9.53;78.34;101557.81;4993864;28;20095;-72
2022/06/21 03:38:36;;;;;;;10.60;4.63;;;;;;;9.50;79.00;101532.66;5005308;28;20138;-71
2022/06/21 03:43:51;;;;;;;7.50;5.18;;;;;;;9.34;80.22;101532.66;4999793;28;20069;-72
2022/06/21 03:46:26;;;;;;;10.07;5.72;;;;;;;9.35;79.49;101528.97;4987970;28;20485;-72
2022/06/21 03:48:59;;;;;;;8.60;5.35;;;;;;;9.34;79.24;101521.78;4988697;28;20042;-72
2022/06/21 03:51:29;;;;;;;9.45;6.43;;;;;;;9.35;79.91;101526.25;4989819;28;20034;-72
2022/06/21 03:54:10;;;;;;;9.50;5.95;;;;;;;9.33;79.67;101522.75;4988805;28;20559;-72
2022/06/21 03:56:49;;;;;;;10.23;6.18;;;;;;;9.37;79.08;101527.03;4997228;28;20081;-72
2022/06/21 03:59:22;;;;;;;11.30;5.47;;;;;;;9.43;78.12;101519.44;4995772;28;20058;-72
2022/06/21 04:02:03;;;;;;;8.25;5.90;;;;;;;9.43;79.53;101510.41;4989497;28;20507;-72
2022/06/21 04:05:07;;;;;;;8.70;5.20;;;;;;;9.43;78.70;101518.56;4989310;28;20177;-72
2022/06/21 04:07:41;;;;;;;8.43;5.47;;;;;;;9.46;78.72;101540.09;4989468;28;20501;-72
2022/06/21 04:10:22;;;;;;;7.32;5.13;;;;;;;9.49;78.44;101537.22;4988772;28;20045;-72
2022/06/21 04:13:26;;;;;;;10.27;5.85;;;;;;;9.50;78.55;101522.66;4988496;28;20045;-72
2022/06/21 04:16:10;;;;;;;7.50;5.57;;;;;;;9.50;79.39;101530.81;4977772;28;20519;-72
2022/06/21 04:18:47;;;;;;;9.73;5.60;;;;;;;9.53;78.65;101527.94;4989669;28;20046;-72
2022/06/21 04:21:25;;;;;;;9.93;5.00;;;;;;;9.55;78.24;101528.69;4989328;28;20065;-72
2022/06/21 04:24:15;;;;;;;10.68;6.30;;;;;;;9.58;78.16;101523.09;5004272;28;20035;-72
2022/06/21 04:26:51;;;;;;;7.88;5.18;;;;;;;9.60;78.76;101526.59;4989341;28;20036;-72
2022/06/21 04:29:27;;;;;;;7.95;5.45;;;;;;;9.62;79.15;101516.53;4986889;28;20042;-72
2022/06/21 04:32:06;;;;;;;15.75;5.55;;;;;;;9.64;79.17;101525.47;4990117;28;20050;-72
2022/06/21 04:34:51;;;;;;;8.93;5.88;;;;;;;9.70;78.51;101524.25;4994954;28;20073;-71
2022/06/21 04:37:26;;;;;;;7.00;5.88;;;;;;;9.74;78.98;101520.38;4989074;28;20053;-72
2022/06/21 04:40:02;;;;;;;11.65;6.07;;;;;;;9.76;78.48;101515.72;4989125;28;20046;-72
2022/06/21 04:42:37;;;;;;;7.45;5.43;;;;;;;9.81;78.79;101513.63;4989773;28;20117;-72
2022/06/21 04:45:15;;;;;;;8.68;5.38;;;;;;;9.84;79.92;101510.72;4987563;28;20449;-71
2022/06/21 04:47:48;;;;;;;12.23;6.32;;;;;;;9.87;79.98;101509.66;4987404;28;20053;-72
2022/06/21 04:50:32;;;;;;;9.82;7.00;;;;;;;9.93;80.54;101495.69;4986759;28;20076;-72
2022/06/21 04:53:05;;;;;;;10.38;6.95;;;;;;;9.96;81.14;101492.81;4989542;28;20038;-72
2022/06/21 04:55:42;;;;;;;11.70;6.63;;;;;;;10.01;79.96;101496.13;4988088;28;20042;-72
2022/06/21 04:58:10;;;;;;;10.93;7.75;;;;;;;10.07;81.26;101506.66;4986979;28;20050;-72
2022/06/21 05:00:36;;;;;;;12.27;7.88;;;;;;;10.18;82.21;101506.00;5002847;28;20400;-72
2022/06/21 05:03:10;;;;;;;15.73;8.57;;;;;;;10.25;82.49;101501.09;4997627;28;20053;-72
2022/06/21 05:05:37;;;;;;;12.02;7.53;;;;;;;10.32;82.77;101505.19;4997004;28;20038;-72
2022/06/21 05:08:12;;;;;;;11.98;7.55;;;;;;;10.41;81.77;101507.34;4995421;28;20555;-71
2022/06/21 05:10:43;;;;;;;12.50;8.10;;;;;;;10.49;82.74;101507.75;4999917;28;20042;-72
2022/06/21 05:13:40;;;;;;;17.15;9.10;;;;;;;10.58;81.86;101503.59;5002953;28;20319;-72
2022/06/21 05:16:18;;;;;;;13.88;8.70;;;;;;;10.65;82.52;101508.56;4986796;28;20046;-71
2022/06/21 05:18:49;;;;;;;16.70;9.45;;;;;;;10.70;84.01;101511.00;4988464;28;20049;-72
2022/06/21 05:21:23;;;;;;;14.50;9.48;;;;;;;10.78;84.67;101497.78;4988055;28;20126;-71
2022/06/21 05:23:48;;;;;;;16.73;9.45;;;;;;;10.84;85.71;101491.94;4988456;28;20081;-72
2022/06/21 05:26:37;;;;;;;17.25;9.52;;;;;;;10.89;85.99;101486.22;4988352;28;20113;-72
2022/06/21 05:29:14;;;;;;;12.05;8.50;;;;;;;11.03;86.07;101488.06;4987959;28;20038;-71
2022/06/21 05:31:45;;;;;;;15.15;8.60;;;;;;;11.19;84.92;101481.53;4988227;28;20030;-72
2022/06/21 05:34:20;;;;;;;12.88;7.75;;;;;;;11.26;83.88;101486.56;5007050;28;20495;-72
2022/06/21 05:36:57;;;;;;;11.40;7.20;;;;;;;11.31;82.86;101498.91;4987760;28;20144;-72
2022/06/21 05:39:30;;;;;;;12.63;7.30;;;;;;;11.37;83.08;101498.50;4986735;28;20089;-72
2022/06/21 05:41:59;;;;;;;12.75;6.75;;;;;;;11.44;81.61;101509.91;5002908;28;20038;-72
2022/06/21 05:44:41;;;;;;;12.13;7.47;;;;;;;11.50;81.83;101512.22;4987730;28;20461;-72
2022/06/21 05:47:24;;;;;;;13.23;7.00;;;;;;;11.55;80.50;101504.59;5000013;28;20048;-72
2022/06/21 05:49:49;;;;;;;;;;;;;;;11.64;80.44;101503.13;4988210;28;20567;-72
2022/06/21 05:52:22;;;;;;;12.75;6.97;;;;;;;11.68;80.64;101501.94;4987820;28;19914;-72
2022/06/21 05:55:02;;;;;;;15.68;6.90;;;;;;;11.74;80.78;101518.75;4986815;28;20038;-72
2022/06/21 05:57:38;;;;;;;9.20;6.50;;;;;;;11.78;80.35;101527.59;4988210;28;20053;-72
2022/06/21 06:00:05;;;;;;;24.75;8.63;;;;;;;11.84;80.39;101526.34;4988360;28;20030;-72
2022/06/21 06:02:49;;;;;;;13.13;6.95;;;;;;;11.88;79.66;101530.63;4993783;28;20041;-72
2022/06/21 06:05:21;;;;;;;9.23;5.95;;;;;;;11.97;80.12;101530.00;4998854;28;20049;-72
2022/06/21 06:07:54;;;;;;;13.73;7.38;;;;;;;12.05;81.08;101537.69;4985204;28;20145;-73
2022/06/21 06:10:23;;;;;;;13.90;6.82;;;;;;;12.13;80.41;101543.50;4987170;28;20105;-72
2022/06/21 06:12:56;;;;;;;13.88;7.05;;;;;;;12.21;80.02;101543.84;4993637;28;20042;-72
2022/06/21 06:15:31;;;;;;;13.45;6.18;;;;;;;12.35;79.99;101540.16;4999333;28;20716;-73
2022/06/21 06:18:04;;;;;;;14.68;6.05;;;;;;;12.42;80.31;101549.69;5003995;28;20126;-72
2022/06/21 06:20:39;;;;;;;13.00;6.13;;;;;;;12.51;79.54;101541.75;5003481;28;20038;-72
2022/06/21 06:23:19;;;;;;;16.35;5.88;;;;;;;12.62;79.76;101551.03;5004264;28;20042;-72
2022/06/21 06:25:57;;;;;;;10.88;5.57;;;;;;;12.72;78.46;101549.41;5005975;28;20579;-73
2022/06/21 06:28:46;;;;;;;10.65;5.38;;;;;;;12.82;78.36;101560.53;4999443;28;20547;-72
2022/06/21 06:31:18;;;;;;;10.05;5.32;;;;;;;12.90;78.60;101563.63;4987217;28;20422;-72
2022/06/21 06:33:49;;;;;;;6.82;4.40;;;;;;;13.00;77.05;101564.69;5011937;28;20092;-71
2022/06/21 06:36:21;;;;;;;9.93;4.13;;;;;;;13.11;75.93;101564.84;4990910;28;20116;-73
2022/06/21 06:38:46;;;;;;;10.70;4.38;;;;;;;13.20;75.85;101555.09;4991483;28;20228;-73
2022/06/21 06:41:16;;;;;;;6.80;3.90;;;;;;;13.27;76.32;101556.44;4990890;28;20149;-73
2022/06/21 06:43:54;;;;;;;6.85;3.10;;;;;;;13.38;75.45;101558.38;4990665;28;20484;-73
2022/06/21 06:46:28;;;;;;;11.68;3.72;;;;;;;13.47;76.32;101557.69;4990681;28;20065;-72
2022/06/21 06:49:20;;;;;;;11.98;3.47;;;;;;;13.60;75.15;101563.16;5008299;28;20119;-72
2022/06/21 06:52:15;;;;;;;9.85;4.22;;;;;;;13.74;75.00;101560.25;4992517;28;20524;-72
2022/06/21 06:55:01;;;;;;;6.72;3.53;;;;;;;13.87;75.15;101552.03;5009852;28;20038;-72
2022/06/21 06:57:40;;;;;;;6.57;3.20;;;;;;;13.93;73.48;101548.81;4999279;28;20042;-72
2022/06/21 07:00:55;;;;;;;6.47;3.20;;;;;;;14.09;73.50;101557.63;4990709;28;20041;-73
2022/06/21 07:03:25;;;;;;;7.28;3.83;;;;;;;14.21;73.04;101567.63;4986572;28;20144;-70
2022/06/21 07:05:59;;;;;;;10.95;4.10;;;;;;;14.33;72.56;101562.22;5020305;28;20152;-72
2022/06/21 07:08:53;;;;;;;8.63;3.85;;;;;;;14.44;73.01;101563.13;5004052;28;20370;-73
2022/06/21 07:11:26;;;;;;;10.05;3.70;;;;;;;14.55;73.64;101562.34;4991085;28;20041;-72
2022/06/21 07:13:52;;;;;;;7.82;3.75;;;;;;;14.72;73.32;101561.00;4990362;28;20145;-72
2022/06/21 07:16:22;;;;;;;10.07;3.60;;;;;;;14.84;71.29;101559.19;4994484;28;20556;-72
2022/06/21 07:18:51;;;;;;;8.75;3.72;;;;;;;14.94;70.71;101568.41;4997554;28;20049;-72
2022/06/21 07:21:18;;;;;;;8.65;4.65;;;;;;;14.97;69.22;101566.31;5004139;28;20099;-73
2022/06/21 07:23:44;;;;;;;8.15;3.80;;;;;;;15.03;70.33;101540.28;5008439;28;20486;-72
2022/06/21 07:26:17;;;;;;;8.98;4.50;;;;;;;15.07;68.96;101536.31;5009480;28;20026;-73
2022/06/21 07:28:51;;;;;;;9.90;3.92;;;;;;;15.15;68.90;101539.28;5004291;28;20396;-72
2022/06/21 07:31:24;;;;;;;7.38;3.75;;;;;;;15.24;69.67;101540.41;4995992;28;20042;-72
2022/06/21 07:33:58;;;;;;;7.13;3.85;;;;;;;15.38;69.95;101542.91;5007789;28;20041;-72
2022/06/21 07:36:36;;;;;;;7.45;3.97;;;;;;;15.59;69.98;101547.63;5004548;28;20037;-73
2022/06/21 07:39:08;;;;;;;8.15;4.20;;;;;;;15.73;67.57;101551.00;5008359;28;20041;-71
2022/06/21 07:41:51;;;;;;;8.35;4.30;;;;;;;15.84;67.29;101552.84;5007026;28;20382;-71
2022/06/21 07:44:40;;;;;;;11.85;4.28;;;;;;;15.96;68.26;101550.97;4987377;28;20389;-73
2022/06/21 07:47:14;;;;;;;14.10;4.45;;;;;;;16.05;65.53;101548.31;5002197;28;20042;-73
2022/06/21 07:49:51;;;;;;;7.03;3.58;;;;;;;16.12;67.23;101547.78;5003810;28;20052;-73
2022/06/21 07:52:28;;;;;;;7.72;3.95;;;;;;;16.18;67.01;101556.41;5004986;28;20106;-72
2022/06/21 07:55:06;;;;;;;7.97;3.55;;;;;;;16.32;67.25;101549.72;5004309;28;20037;-72
2022/06/21 07:57:42;;;;;;;10.90;4.05;;;;;;;16.39;64.55;101545.44;5002414;28;20052;-69
2022/06/21 08:00:18;;;;;;;9.77;4.25;;;;;;;16.47;65.83;101542.03;4992342;28;20030;-72
2022/06/21 08:08:35;;;;;;;8.48;4.38;;;;;;;17.11;64.60;101508.03;4989123;28;20494;-72
2022/06/21 08:11:08;;;;;;;12.32;4.68;;;;;;;17.57;60.06;101524.00;4989951;28;20049;-73
2022/06/21 08:13:33;;;;;;;9.82;4.55;;;;;;;17.67;61.17;101513.03;4989207;28;20129;-73
2022/06/21 08:16:09;;;;;;;8.10;4.28;;;;;;;17.90;60.91;101516.44;4989414;28;20484;-73
2022/06/21 08:18:59;;;;;;;28.23;5.13;;;;;;;18.13;60.66;101522.56;5004202;28;20384;-72
2022/06/21 08:21:34;;;;;;;11.13;3.90;;;;;;;18.30;57.81;101531.00;4989151;28;20050;-73
2022/06/21 08:24:14;;;;;;;11.32;4.53;;;;;;;18.33;59.09;101519.69;5004892;28;20532;-73
2022/06/21 08:26:47;;;;;;;7.32;4.22;;;;;;;18.61;59.29;101522.56;5007488;28;20467;-73
2022/06/21 08:29:22;;;;;;;8.38;4.03;;;;;;;19.04;57.12;101512.94;5004670;28;20496;-73
2022/06/21 08:32:12;;;;;;;7.55;3.75;;;;;;;19.21;55.52;101506.66;5002153;28;20042;-73
2022/06/21 08:34:47;;;;;;;9.85;3.35;;;;;;;19.24;54.24;101498.03;5003903;28;20120;-73
2022/06/21 08:37:33;;;;;;;8.23;3.92;;;;;;;19.43;55.27;101493.47;4987422;28;20058;-73
2022/06/21 08:40:28;;;;;;;9.32;3.42;;;;;;;19.81;56.39;101486.88;5014957;28;20065;-73
2022/06/21 08:43:36;;;;;;;6.88;3.30;;;;;;;20.18;54.25;101502.44;4935237;28;20526;-74
2022/06/21 08:46:29;;;;;;;6.50;3.78;;;;;;;20.35;54.80;101501.59;4988804;28;20038;-69
2022/06/21 08:49:06;;;;;;;6.22;3.33;;;;;;;20.81;52.17;101491.28;5003306;28;20042;-73
2022/06/21 08:52:05;;;;;;;10.63;3.63;;;;;;;20.77;51.98;101476.91;4995697;28;20092;-69
2022/06/21 08:54:46;;;;;;;6.32;3.05;;;;;;;21.07;53.26;101464.44;5001765;28;20444;-73
2022/06/21 08:57:38;;;;;;;9.10;3.78;;;;;;;21.12;51.99;101453.78;5005784;28;20046;-72
2022/06/21 09:00:08;;;;;;;7.30;3.30;;;;;;;21.09;50.25;101451.34;4998744;28;20566;-70
2022/06/21 09:03:00;;;;;;;6.55;3.55;;;;;;;21.04;52.92;101439.03;5001994;28;20053;-72
2022/06/21 09:05:51;;;;;;;6.50;2.67;;;;;;;21.11;52.50;101454.78;4989227;28;20069;-73
2022/06/21 09:08:40;;;;;;;5.55;2.70;;;;;;;21.02;52.85;101454.91;5004789;28;20530;-72
2022/06/21 09:11:21;;;;;;;6.65;3.47;;;;;;;20.96;49.46;101439.84;5005891;28;20111;-74
2022/06/21 09:14:13;;;;;;;9.20;3.13;;;;;;;20.77;50.86;101448.38;5004570;28;20042;-73
2022/06/21 09:16:50;;;;;;;7.77;2.87;;;;;;;20.84;50.70;101444.81;5003969;28;20137;-73
2022/06/21 09:19:53;;;;;;;6.88;3.03;;;;;;;20.97;52.47;101447.09;5007376;28;20045;-73
2022/06/21 09:22:24;;;;;;;;;;;;;;;21.06;52.70;101436.97;5003320;28;20053;-73
2022/06/21 09:24:59;;;;;;;7.75;3.72;;;;;;;21.02;50.39;101433.66;5003088;28;20356;-73
2022/06/21 09:27:40;;;;;;;7.78;3.42;;;;;;;21.25;50.89;101424.75;4988019;28;20042;-73
2022/06/21 09:30:20;;;;;;;7.05;3.10;;;;;;;22.00;49.72;101414.59;4987576;28;20038;-72
2022/06/21 09:33:06;;;;;;;8.68;3.75;;;;;;;22.61;48.32;101418.75;4995583;28;20084;-73
2022/06/21 09:35:56;;;;;;;4.70;3.33;;;;;;;22.64;46.38;101409.22;4997821;28;20026;-73
2022/06/21 09:38:36;;;;;;;15.18;3.95;;;;;;;22.59;46.70;101408.91;4987749;28;20477;-74
2022/06/21 09:41:14;;;;;;;9.50;3.50;;;;;;;23.23;49.65;101406.16;4988036;28;20049;-69
2022/06/21 09:43:42;;;;;;;7.93;3.63;;;;;;;23.76;45.64;101401.69;4987561;28;20551;-73
2022/06/21 09:46:48;;;;;;;6.32;3.45;;;;;;;24.36;46.83;101418.47;4987143;28;20034;-72
2022/06/21 09:49:55;;;;;;;8.00;4.15;;;;;;;24.10;41.21;101420.72;4987486;28;20038;-74
2022/06/21 09:52:44;;;;;;;11.52;3.13;;;;;;;24.22;43.64;101421.16;4986272;28;20496;-73
2022/06/21 09:55:19;;;;;;;5.15;2.63;;;;;;;24.73;42.39;101421.41;4987614;28;20034;-73
2022/06/21 09:57:51;;;;;;;5.82;3.03;;;;;;;24.86;41.57;101413.28;5002191;28;20128;-70
2022/06/21 10:00:17;;;;;;;;;;;;;;;24.99;42.79;101407.88;4987585;28;20055;-73
2022/06/21 10:03:10;;;;;;;5.88;3.10;;;;;;;24.32;38.83;101400.38;4994583;28;19917;-73
2022/06/21 10:05:50;;;;;;;6.18;3.05;;;;;;;24.09;42.94;101405.97;4997476;28;20474;-71
2022/06/21 10:08:27;;;;;;;8.02;3.63;;;;;;;23.86;42.66;101414.31;4995170;28;20053;-73
2022/06/21 10:10:58;;;;;;;7.03;3.08;;;;;;;23.70;42.40;101413.56;5007243;28;20034;-74
2022/06/21 10:14:00;;;;;;;8.95;3.00;;;;;;;23.70;42.97;101419.97;4998920;28;20099;-74
2022/06/21 10:16:47;;;;;;;5.28;2.83;;;;;;;23.70;39.90;101419.13;4987284;28;20092;-74
2022/06/21 10:19:36;;;;;;;9.27;3.30;;;;;;;23.22;43.37;101415.50;4987316;28;20477;-73
2022/06/21 10:22:23;;;;;;;7.28;3.15;;;;;;;23.31;45.32;101412.50;4987370;28;20460;-68
2022/06/21 10:25:06;;;;;;;7.03;3.08;;;;;;;23.29;44.00;101420.16;4987174;28;20049;-74
2022/06/21 10:27:50;;;;;;;7.10;3.60;;;;;;;23.32;42.54;101414.25;4986643;28;20034;-71
2022/06/21 10:30:21;;;;;;;7.78;3.38;;;;;;;23.25;42.41;101417.91;4986911;28;20191;-73
2022/06/21 10:33:09;;;;;;;7.68;3.63;;;;;;;23.47;44.51;101424.59;4994784;28;20076;-74
2022/06/21 10:35:47;;;;;;;6.85;3.33;;;;;;;23.77;43.34;101422.88;4997086;28;20150;-72
2022/06/21 10:38:13;;;;;;;9.95;4.10;;;;;;;23.58;41.72;101411.16;4987243;28;20085;-72
2022/06/21 10:40:58;;;;;;;6.68;3.90;;;;;;;23.42;42.47;101411.25;4987107;28;20438;-73
2022/06/21 10:43:39;;;;;;;5.22;3.75;;;;;;;22.95;41.03;101409.38;4986607;28;20038;-74
2022/06/21 10:46:24;;;;;;;8.98;3.67;;;;;;;22.70;41.63;101418.75;4986496;28;20100;-74
2022/06/21 10:49:04;;;;;;;5.07;3.03;;;;;;;23.02;43.96;101423.38;5001531;28;20125;-74
2022/06/21 10:51:56;;;;;;;7.97;3.80;;;;;;;23.32;44.01;101418.94;4987394;28;20069;-73
2022/06/21 10:54:55;;;;;;;9.00;3.77;;;;;;;23.09;43.73;101416.09;4986908;28;20034;-74
2022/06/21 10:57:47;;;;;;;8.77;3.72;;;;;;;23.19;43.58;101411.19;5001580;28;20456;-74
2022/06/21 11:03:41;;;;;;;7.40;3.05;;;;;;;23.23;42.99;101417.25;4999022;28;20049;-74
2022/06/21 11:06:17;;;;;;;4.25;2.90;;;;;;;23.46;41.13;101415.41;4992571;28;20069;-74
2022/06/21 11:09:03;;;;;;;26.00;4.97;;;;;;;23.76;42.53;101423.94;4986498;28;20097;-74
2022/06/21 11:15:20;;;;;;;6.60;2.63;;;;;;;24.03;40.79;101436.44;4923366;29;20035;-74
2022/06/21 11:18:13;;;;;;;5.53;2.67;;;;;;;23.99;40.38;101432.28;4923408;29;20054;-72
2022/06/21 11:20:59;;;;;;;5.20;2.30;;;;;;;23.87;43.17;101421.59;5002491;28;20104;-73
2022/06/21 11:23:42;;;;;;;4.80;2.90;;;;;;;23.76;39.73;101412.81;5008819;28;20140;-73
2022/06/21 11:26:45;;;;;;;6.72;3.53;;;;;;;23.66;40.87;101413.91;5004372;28;20041;-74
2022/06/21 11:29:19;;;;;;;6.60;3.05;;;;;;;23.84;42.22;101410.00;4999835;28;20041;-74
2022/06/21 11:31:56;;;;;;;6.82;3.00;;;;;;;23.91;40.42;101413.75;4995244;28;20033;-74
2022/06/21 11:34:45;;;;;;;5.72;2.92;;;;;;;24.00;42.11;101409.00;5007022;28;20048;-73
2022/06/21 11:37:29;;;;;;;3.85;2.60;;;;;;;24.01;40.64;101419.06;5000630;28;20085;-74
2022/06/21 11:40:11;;;;;;;6.15;3.47;;;;;;;23.66;38.57;101418.63;5006660;28;20033;-73
2022/06/21 11:42:52;;;;;;;7.32;3.53;;;;;;;23.39;40.56;101417.16;5008029;28;20045;-74
2022/06/21 11:45:26;;;;;;;8.02;3.00;;;;;;;23.28;42.34;101410.09;4994054;28;20026;-74
2022/06/21 11:48:13;;;;;;;4.50;2.83;;;;;;;23.13;41.45;101400.81;5004055;28;20052;-74
2022/06/21 11:50:56;;;;;;;6.90;2.78;;;;;;;23.11;43.01;101400.09;4997027;28;20120;-74
2022/06/21 11:53:40;;;;;;;5.28;3.13;;;;;;;23.23;41.31;101401.44;5007951;28;20049;-74
2022/06/21 11:56:20;;;;;;;9.27;2.75;;;;;;;23.36;42.81;101401.75;5008095;28;20069;-71
2022/06/21 11:59:14;;;;;;;5.88;2.40;;;;;;;23.29;41.41;101394.31;4994382;28;20069;-71
2022/06/21 12:01:53;;;;;;;8.05;2.50;;;;;;;23.47;42.30;101394.03;4988199;28;20046;-74
2022/06/21 12:04:29;;;;;;;83.78;5.30;;;;;;;23.67;42.52;101393.41;4998857;28;20080;-74
2022/06/21 12:07:10;;;;;;;6.40;2.60;;;;;;;23.91;41.81;101395.16;5024283;28;20037;-73
2022/06/21 12:09:58;;;;;;;8.10;3.10;;;;;;;23.73;39.20;101383.47;5001401;28;20049;-74
2022/06/21 12:12:47;;;;;;;4.90;3.10;;;;;;;23.86;40.50;101385.66;5007715;28;20076;-74
2022/06/21 12:15:33;;;;;;;6.43;2.70;;;;;;;24.18;42.44;101382.59;5003444;28;20065;-74
2022/06/21 12:18:04;;;;;;;12.77;3.22;;;;;;;24.15;39.41;101376.53;5003634;28;20555;-74
2022/06/21 12:20:49;;;;;;;4.90;3.08;;;;;;;24.22;40.09;101379.47;5008354;28;20029;-74
2022/06/21 12:23:23;;;;;;;6.75;3.30;;;;;;;24.10;38.89;101377.09;5000952;28;20073;-75
2022/06/21 12:25:50;;;;;;;4.88;2.88;;;;;;;23.86;39.97;101380.94;5005305;28;20037;-73